KAID/AID METAR and TAF weather

Enter ICAO airport designator
Station Type Date Time Source
KAID METAR 2018/12/10 18:48 UTC NOAA

KAID 101848Z 00000KT 2 1/2BRSM OVC005 M05/M06 A3027


Station Type Date Time Source
KAID Decoded METAR 2018/12/10 18:48 UTC NOAA

Anderson Municipal, IN, United States (KAID) 40-07N 085-37W
Dec 10, 2018 - 01:48 PM EST / 2018.12.10 1848 UTC
Wind: Calm:0
Sky conditions: overcast
Temperature: 23 F (-5 C)
Dew Point: 21 F (-6 C)
Relative Humidity: 92%
Pressure (altimeter): 30.27 in. Hg (1025 hPa)
ob: KAID 101848Z 00000KT 2 1/2BRSM OVC005 M05/M06 A3027
cycle: 19

Station Type Date Time Source
KAID TAF UTC NOAA

Error!


Example: see airport list